sensor_id;sensor_type;location;lat;lon;timestamp;pressure;altitude;pressure_sealevel;temperature;humidity
39739;BME280;25422;48.286;8.484;2023-03-21T00:01:44;94259.28;;;2.28;100.00
39739;BME280;25422;48.286;8.484;2023-03-21T00:04:09;94254.59;;;2.22;100.00
39739;BME280;25422;48.286;8.484;2023-03-21T00:06:36;94250.38;;;2.32;100.00
39739;BME280;25422;48.286;8.484;2023-03-21T00:09:02;94258.38;;;2.29;100.00
39739;BME280;25422;48.286;8.484;2023-03-21T00:11:28;94252.00;;;2.22;100.00
39739;BME280;25422;48.286;8.484;2023-03-21T00:13:53;94251.16;;;2.10;100.00
39739;BME280;25422;48.286;8.484;2023-03-21T00:16:22;94244.59;;;2.06;100.00
39739;BME280;25422;48.286;8.484;2023-03-21T00:18:49;94248.00;;;1.95;100.00
39739;BME280;25422;48.286;8.484;2023-03-21T00:21:18;94246.34;;;1.83;100.00
39739;BME280;25422;48.286;8.484;2023-03-21T00:23:44;94245.50;;;1.71;100.00
39739;BME280;25422;48.286;8.484;2023-03-21T00:26:11;94237.72;;;1.60;100.00
39739;BME280;25422;48.286;8.484;2023-03-21T00:28:38;94242.59;;;1.40;100.00
39739;BME280;25422;48.286;8.484;2023-03-21T00:31:05;94242.28;;;1.21;100.00
39739;BME280;25422;48.286;8.484;2023-03-21T00:33:31;94239.31;;;1.14;100.00
39739;BME280;25422;48.286;8.484;2023-03-21T00:35:59;94235.13;;;1.13;100.00
39739;BME280;25422;48.286;8.484;2023-03-21T00:38:25;94227.41;;;1.13;100.00
39739;BME280;25422;48.286;8.484;2023-03-21T00:40:50;94227.97;;;1.16;100.00
39739;BME280;25422;48.286;8.484;2023-03-21T00:43:16;94224.59;;;1.16;100.00
39739;BME280;25422;48.286;8.484;2023-03-21T00:45:44;94234.47;;;1.22;100.00
39739;BME280;25422;48.286;8.484;2023-03-21T00:48:11;94229.09;;;1.25;100.00
39739;BME280;25422;48.286;8.484;2023-03-21T00:50:37;94231.91;;;1.33;100.00
39739;BME280;25422;48.286;8.484;2023-03-21T00:53:03;94230.75;;;1.38;100.00
39739;BME280;25422;48.286;8.484;2023-03-21T00:55:29;94226.91;;;1.43;100.00
39739;BME280;25422;48.286;8.484;2023-03-21T00:57:54;94222.72;;;1.54;100.00
39739;BME280;25422;48.286;8.484;2023-03-21T01:00:20;94223.41;;;1.56;100.00
39739;BME280;25422;48.286;8.484;2023-03-21T01:02:46;94223.56;;;1.65;100.00
39739;BME280;25422;48.286;8.484;2023-03-21T01:05:28;94221.81;;;1.66;100.00
39739;BME280;25422;48.286;8.484;2023-03-21T01:08:15;94216.59;;;1.55;100.00
39739;BME280;25422;48.286;8.484;2023-03-21T01:10:43;94221.50;;;1.46;100.00
39739;BME280;25422;48.286;8.484;2023-03-21T01:13:10;94221.88;;;1.53;100.00
39739;BME280;25422;48.286;8.484;2023-03-21T01:15:42;94217.19;;;1.47;100.00
39739;BME280;25422;48.286;8.484;2023-03-21T01:18:08;94225.38;;;1.41;100.00
39739;BME280;25422;48.286;8.484;2023-03-21T01:20:33;94211.53;;;1.30;100.00
39739;BME280;25422;48.286;8.484;2023-03-21T01:22:59;94215.69;;;1.20;100.00
39739;BME280;25422;48.286;8.484;2023-03-21T01:25:25;94216.50;;;1.21;100.00
39739;BME280;25422;48.286;8.484;2023-03-21T01:27:50;94211.56;;;1.06;100.00
39739;BME280;25422;48.286;8.484;2023-03-21T01:30:16;94215.19;;;1.04;100.00
39739;BME280;25422;48.286;8.484;2023-03-21T01:32:42;94209.41;;;1.00;100.00
39739;BME280;25422;48.286;8.484;2023-03-21T01:35:10;94203.69;;;0.96;100.00
39739;BME280;25422;48.286;8.484;2023-03-21T01:37:35;94207.19;;;0.95;100.00
39739;BME280;25422;48.286;8.484;2023-03-21T01:40:01;94209.03;;;0.93;100.00
39739;BME280;25422;48.286;8.484;2023-03-21T01:42:28;94201.66;;;0.89;100.00
39739;BME280;25422;48.286;8.484;2023-03-21T01:45:03;94199.19;;;0.87;100.00
39739;BME280;25422;48.286;8.484;2023-03-21T01:47:44;94195.66;;;0.88;100.00
39739;BME280;25422;48.286;8.484;2023-03-21T01:50:21;94200.59;;;0.91;100.00
39739;BME280;25422;48.286;8.484;2023-03-21T01:53:13;94198.84;;;0.92;100.00
39739;BME280;25422;48.286;8.484;2023-03-21T01:55:40;94190.50;;;0.88;100.00
39739;BME280;25422;48.286;8.484;2023-03-21T01:58:33;94185.56;;;0.85;100.00
39739;BME280;25422;48.286;8.484;2023-03-21T02:01:20;94182.72;;;0.77;100.00
39739;BME280;25422;48.286;8.484;2023-03-21T02:03:50;94183.63;;;0.64;100.00
39739;BME280;25422;48.286;8.484;2023-03-21T02:06:52;94179.00;;;0.57;100.00
39739;BME280;25422;48.286;8.484;2023-03-21T02:09:47;94190.63;;;0.62;100.00
39739;BME280;25422;48.286;8.484;2023-03-21T02:12:19;94188.16;;;0.61;100.00
39739;BME280;25422;48.286;8.484;2023-03-21T02:14:50;94191.56;;;0.61;100.00
39739;BME280;25422;48.286;8.484;2023-03-21T02:17:44;94183.00;;;0.61;100.00
39739;BME280;25422;48.286;8.484;2023-03-21T02:23:32;94182.59;;;0.54;100.00
39739;BME280;25422;48.286;8.484;2023-03-21T02:37:27;94176.81;;;0.63;100.00
39739;BME280;25422;48.286;8.484;2023-03-21T02:40:21;94171.88;;;0.60;100.00
39739;BME280;25422;48.286;8.484;2023-03-21T02:43:04;94174.03;;;0.66;100.00
39739;BME280;25422;48.286;8.484;2023-03-21T02:45:39;94176.16;;;0.73;100.00
39739;BME280;25422;48.286;8.484;2023-03-21T02:48:10;94177.03;;;0.84;100.00
39739;BME280;25422;48.286;8.484;2023-03-21T02:50:47;94166.28;;;0.91;100.00
39739;BME280;25422;48.286;8.484;2023-03-21T02:53:19;94171.50;;;1.02;100.00
39739;BME280;25422;48.286;8.484;2023-03-21T02:55:47;94171.88;;;1.09;100.00
39739;BME280;25422;48.286;8.484;2023-03-21T02:58:19;94164.84;;;1.11;100.00
39739;BME280;25422;48.286;8.484;2023-03-21T03:00:51;94175.63;;;1.16;100.00
39739;BME280;25422;48.286;8.484;2023-03-21T03:03:29;94168.13;;;1.13;100.00
39739;BME280;25422;48.286;8.484;2023-03-21T03:05:56;94165.19;;;1.06;100.00
39739;BME280;25422;48.286;8.484;2023-03-21T03:08:28;94169.03;;;1.00;100.00
39739;BME280;25422;48.286;8.484;2023-03-21T03:11:23;94162.22;;;0.99;100.00
39739;BME280;25422;48.286;8.484;2023-03-21T03:14:03;94162.91;;;0.90;100.00
39739;BME280;25422;48.286;8.484;2023-03-21T03:19:30;94156.06;;;0.78;100.00
39739;BME280;25422;48.286;8.484;2023-03-21T03:22:00;94157.63;;;0.92;100.00
39739;BME280;25422;48.286;8.484;2023-03-21T03:24:33;94154.00;;;0.94;100.00
39739;BME280;25422;48.286;8.484;2023-03-21T03:27:05;94149.28;;;0.88;100.00
39739;BME280;25422;48.286;8.484;2023-03-21T03:29:36;94154.09;;;0.81;100.00
39739;BME280;25422;48.286;8.484;2023-03-21T03:32:15;94154.03;;;0.70;100.00
39739;BME280;25422;48.286;8.484;2023-03-21T03:34:47;94158.59;;;0.66;100.00
39739;BME280;25422;48.286;8.484;2023-03-21T03:37:19;94153.44;;;0.66;100.00
39739;BME280;25422;48.286;8.484;2023-03-21T03:40:12;94154.69;;;0.61;100.00
39739;BME280;25422;48.286;8.484;2023-03-21T03:42:49;94151.72;;;0.54;100.00
39739;BME280;25422;48.286;8.484;2023-03-21T03:45:27;94147.72;;;0.50;100.00
39739;BME280;25422;48.286;8.484;2023-03-21T03:48:14;94148.97;;;0.44;100.00
39739;BME280;25422;48.286;8.484;2023-03-21T03:50:56;94147.56;;;0.40;100.00
39739;BME280;25422;48.286;8.484;2023-03-21T03:53:45;94147.06;;;0.35;100.00
39739;BME280;25422;48.286;8.484;2023-03-21T03:56:15;94143.78;;;0.33;100.00
39739;BME280;25422;48.286;8.484;2023-03-21T03:58:41;94144.59;;;0.33;100.00
39739;BME280;25422;48.286;8.484;2023-03-21T04:01:07;94147.38;;;0.30;100.00
39739;BME280;25422;48.286;8.484;2023-03-21T04:03:34;94143.81;;;0.20;100.00
39739;BME280;25422;48.286;8.484;2023-03-21T04:06:04;94139.41;;;0.09;100.00
39739;BME280;25422;48.286;8.484;2023-03-21T04:08:30;94145.59;;;0.07;100.00
39739;BME280;25422;48.286;8.484;2023-03-21T04:10:56;94146.16;;;-0.01;100.00
39739;BME280;25422;48.286;8.484;2023-03-21T04:13:22;94134.63;;;-0.08;100.00
39739;BME280;25422;48.286;8.484;2023-03-21T04:16:07;94127.53;;;-0.05;100.00
39739;BME280;25422;48.286;8.484;2023-03-21T04:18:33;94132.16;;;-0.10;100.00
39739;BME280;25422;48.286;8.484;2023-03-21T04:20:59;94129.47;;;-0.08;100.00
39739;BME280;25422;48.286;8.484;2023-03-21T04:23:27;94120.13;;;-0.09;100.00
39739;BME280;25422;48.286;8.484;2023-03-21T04:25:54;94126.41;;;-0.13;100.00
39739;BME280;25422;48.286;8.484;2023-03-21T04:28:19;94129.41;;;-0.20;100.00
39739;BME280;25422;48.286;8.484;2023-03-21T04:30:56;94123.56;;;-0.22;100.00
39739;BME280;25422;48.286;8.484;2023-03-21T04:33:23;94134.75;;;-0.23;100.00
39739;BME280;25422;48.286;8.484;2023-03-21T04:35:54;94133.84;;;-0.22;100.00
39739;BME280;25422;48.286;8.484;2023-03-21T04:38:23;94136.09;;;-0.17;100.00
39739;BME280;25422;48.286;8.484;2023-03-21T04:40:51;94133.84;;;-0.22;100.00
39739;BME280;25422;48.286;8.484;2023-03-21T04:43:16;94131.88;;;-0.18;100.00
39739;BME280;25422;48.286;8.484;2023-03-21T04:45:42;94137.63;;;-0.14;100.00
39739;BME280;25422;48.286;8.484;2023-03-21T04:48:08;94133.19;;;-0.12;100.00
39739;BME280;25422;48.286;8.484;2023-03-21T04:50:33;94131.13;;;-0.07;100.00
39739;BME280;25422;48.286;8.484;2023-03-21T04:52:59;94140.19;;;-0.14;100.00
39739;BME280;25422;48.286;8.484;2023-03-21T04:55:25;94140.91;;;-0.12;100.00
39739;BME280;25422;48.286;8.484;2023-03-21T04:57:52;94137.63;;;-0.14;100.00
39739;BME280;25422;48.286;8.484;2023-03-21T05:00:19;94129.41;;;-0.20;100.00
39739;BME280;25422;48.286;8.484;2023-03-21T05:02:45;94131.47;;;-0.25;100.00
39739;BME280;25422;48.286;8.484;2023-03-21T05:05:11;94137.56;;;-0.26;100.00
39739;BME280;25422;48.286;8.484;2023-03-21T05:07:40;94134.03;;;-0.25;100.00
39739;BME280;25422;48.286;8.484;2023-03-21T05:10:08;94135.78;;;-0.25;100.00
39739;BME280;25422;48.286;8.484;2023-03-21T05:12:34;94141.84;;;-0.26;100.00
39739;BME280;25422;48.286;8.484;2023-03-21T05:15:00;94140.00;;;-0.37;100.00
39739;BME280;25422;48.286;8.484;2023-03-21T05:17:25;94142.19;;;-0.44;100.00
39739;BME280;25422;48.286;8.484;2023-03-21T05:19:53;94139.41;;;-0.54;100.00
39739;BME280;25422;48.286;8.484;2023-03-21T05:22:21;94134.50;;;-0.57;100.00
39739;BME280;25422;48.286;8.484;2023-03-21T05:24:50;94143.44;;;-0.62;100.00
39739;BME280;25422;48.286;8.484;2023-03-21T05:27:31;94142.69;;;-0.64;100.00
39739;BME280;25422;48.286;8.484;2023-03-21T05:30:11;94131.91;;;-0.82;100.00
39739;BME280;25422;48.286;8.484;2023-03-21T05:32:37;94136.22;;;-0.83;100.00
39739;BME280;25422;48.286;8.484;2023-03-21T05:35:04;94137.97;;;-0.83;100.00
39739;BME280;25422;48.286;8.484;2023-03-21T05:37:29;94136.13;;;-0.69;100.00
39739;BME280;25422;48.286;8.484;2023-03-21T05:39:55;94140.44;;;-0.69;100.00
39739;BME280;25422;48.286;8.484;2023-03-21T05:42:29;94145.78;;;-0.85;100.00
39739;BME280;25422;48.286;8.484;2023-03-21T05:44:54;94148.44;;;-0.87;100.00
39739;BME280;25422;48.286;8.484;2023-03-21T05:47:28;94149.91;;;-0.82;100.00
39739;BME280;25422;48.286;8.484;2023-03-21T05:49:56;94144.44;;;-0.78;100.00
39739;BME280;25422;48.286;8.484;2023-03-21T05:52:23;94150.09;;;-0.60;100.00
39739;BME280;25422;48.286;8.484;2023-03-21T05:54:48;94148.75;;;-0.40;100.00
39739;BME280;25422;48.286;8.484;2023-03-21T05:57:15;94150.78;;;-0.19;100.00
39739;BME280;25422;48.286;8.484;2023-03-21T06:00:09;94149.28;;;-0.22;100.00
39739;BME280;25422;48.286;8.484;2023-03-21T06:02:42;94150.97;;;0.04;100.00
39739;BME280;25422;48.286;8.484;2023-03-21T06:05:25;94140.72;;;0.28;100.00
39739;BME280;25422;48.286;8.484;2023-03-21T06:07:50;94145.25;;;0.48;100.00
39739;BME280;25422;48.286;8.484;2023-03-21T06:10:16;94143.56;;;0.84;100.00
39739;BME280;25422;48.286;8.484;2023-03-21T06:12:44;94124.56;;;1.21;100.00
39739;BME280;25422;48.286;8.484;2023-03-21T06:15:27;94125.50;;;1.31;100.00
39739;BME280;25422;48.286;8.484;2023-03-21T06:18:01;94129.53;;;1.47;100.00
39739;BME280;25422;48.286;8.484;2023-03-21T06:20:27;94126.13;;;1.35;100.00
39739;BME280;25422;48.286;8.484;2023-03-21T06:23:01;94129.41;;;1.60;100.00
39739;BME280;25422;48.286;8.484;2023-03-21T06:25:27;94127.44;;;1.86;100.00
39739;BME280;25422;48.286;8.484;2023-03-21T06:27:53;94120.97;;;1.80;100.00
39739;BME280;25422;48.286;8.484;2023-03-21T06:30:19;94127.78;;;2.04;100.00
39739;BME280;25422;48.286;8.484;2023-03-21T06:33:09;94120.34;;;2.22;100.00
39739;BME280;25422;48.286;8.484;2023-03-21T06:35:35;94119.88;;;2.28;100.00
39739;BME280;25422;48.286;8.484;2023-03-21T06:38:01;94121.25;;;2.44;100.00
39739;BME280;25422;48.286;8.484;2023-03-21T06:40:30;94116.72;;;2.68;100.00
39739;BME280;25422;48.286;8.484;2023-03-21T06:42:56;94122.44;;;3.04;100.00
39739;BME280;25422;48.286;8.484;2023-03-21T06:45:22;94114.63;;;3.37;100.00
39739;BME280;25422;48.286;8.484;2023-03-21T06:47:49;94118.81;;;3.90;100.00
39739;BME280;25422;48.286;8.484;2023-03-21T06:50:37;94112.88;;;4.89;100.00
39739;BME280;25422;48.286;8.484;2023-03-21T06:53:03;94119.84;;;5.85;100.00
39739;BME280;25422;48.286;8.484;2023-03-21T06:55:33;94114.22;;;6.91;100.00
39739;BME280;25422;48.286;8.484;2023-03-21T06:58:00;94112.47;;;7.36;100.00
39739;BME280;25422;48.286;8.484;2023-03-21T07:00:26;94115.31;;;8.38;100.00
39739;BME280;25422;48.286;8.484;2023-03-21T07:02:52;94114.66;;;9.86;100.00
39739;BME280;25422;48.286;8.484;2023-03-21T07:05:19;94114.63;;;11.13;100.00
39739;BME280;25422;48.286;8.484;2023-03-21T07:07:44;94107.47;;;11.68;83.05
39739;BME280;25422;48.286;8.484;2023-03-21T07:10:10;94112.56;;;11.85;80.25
39739;BME280;25422;48.286;8.484;2023-03-21T07:12:45;94112.75;;;11.45;76.98
39739;BME280;25422;48.286;8.484;2023-03-21T07:15:22;94104.16;;;11.13;80.32
39739;BME280;25422;48.286;8.484;2023-03-21T07:17:50;94110.06;;;10.84;81.77
39739;BME280;25422;48.286;8.484;2023-03-21T07:20:16;94102.56;;;10.49;84.17
39739;BME280;25422;48.286;8.484;2023-03-21T07:22:42;94098.16;;;11.27;81.42
39739;BME280;25422;48.286;8.484;2023-03-21T07:25:09;94097.75;;;11.92;76.61
39739;BME280;25422;48.286;8.484;2023-03-21T07:27:38;94093.84;;;13.21;67.96
39739;BME280;25422;48.286;8.484;2023-03-21T07:30:04;94095.34;;;12.35;69.11
39739;BME280;25422;48.286;8.484;2023-03-21T07:32:33;94090.50;;;13.27;66.42
39739;BME280;25422;48.286;8.484;2023-03-21T07:34:59;94093.63;;;14.57;63.16
39739;BME280;25422;48.286;8.484;2023-03-21T07:37:25;94099.63;;;14.86;59.72
39739;BME280;25422;48.286;8.484;2023-03-21T07:39:51;94093.94;;;13.49;62.52
39739;BME280;25422;48.286;8.484;2023-03-21T07:42:17;94094.38;;;13.53;63.90
39739;BME280;25422;48.286;8.484;2023-03-21T07:44:43;94091.66;;;13.96;65.11
39739;BME280;25422;48.286;8.484;2023-03-21T07:47:09;94092.13;;;14.41;61.70
39739;BME280;25422;48.286;8.484;2023-03-21T07:49:35;94103.78;;;15.29;59.44
39739;BME280;25422;48.286;8.484;2023-03-21T07:52:01;94096.94;;;15.95;57.60
39739;BME280;25422;48.286;8.484;2023-03-21T07:54:27;94101.69;;;14.91;55.16
39739;BME280;25422;48.286;8.484;2023-03-21T07:56:54;94107.19;;;14.61;56.90
39739;BME280;25422;48.286;8.484;2023-03-21T07:59:19;94099.06;;;14.56;56.00
39739;BME280;25422;48.286;8.484;2023-03-21T08:01:45;94101.34;;;13.95;59.13
39739;BME280;25422;48.286;8.484;2023-03-21T08:04:10;94101.09;;;12.97;64.02
39739;BME280;25422;48.286;8.484;2023-03-21T08:06:36;94099.22;;;12.39;70.25
39739;BME280;25422;48.286;8.484;2023-03-21T08:09:02;94096.69;;;11.48;77.62
39739;BME280;25422;48.286;8.484;2023-03-21T08:11:28;94099.38;;;10.62;89.16
39739;BME280;25422;48.286;8.484;2023-03-21T08:13:56;94095.13;;;10.13;94.23
39739;BME280;25422;48.286;8.484;2023-03-21T08:16:21;94098.66;;;9.72;100.00
39739;BME280;25422;48.286;8.484;2023-03-21T08:18:47;94094.03;;;10.07;100.00
39739;BME280;25422;48.286;8.484;2023-03-21T08:21:12;94096.16;;;9.95;100.00
39739;BME280;25422;48.286;8.484;2023-03-21T08:23:37;94090.34;;;9.85;100.00
39739;BME280;25422;48.286;8.484;2023-03-21T08:26:03;94084.63;;;9.73;100.00
39739;BME280;25422;48.286;8.484;2023-03-21T08:28:29;94094.94;;;9.58;100.00
39739;BME280;25422;48.286;8.484;2023-03-21T08:30:54;94088.88;;;9.74;100.00
39739;BME280;25422;48.286;8.484;2023-03-21T08:33:20;94091.19;;;9.61;100.00
39739;BME280;25422;48.286;8.484;2023-03-21T08:35:46;94089.28;;;10.11;100.00
39739;BME280;25422;48.286;8.484;2023-03-21T08:38:11;94089.25;;;10.90;100.00
39739;BME280;25422;48.286;8.484;2023-03-21T08:40:37;94089.47;;;11.27;93.26
39739;BME280;25422;48.286;8.484;2023-03-21T08:43:02;94094.09;;;11.25;92.64
39739;BME280;25422;48.286;8.484;2023-03-21T08:45:28;94093.56;;;11.06;95.80
39739;BME280;25422;48.286;8.484;2023-03-21T08:47:54;94091.88;;;11.90;89.07
39739;BME280;25422;48.286;8.484;2023-03-21T08:50:22;94097.34;;;11.80;87.23
39739;BME280;25422;48.286;8.484;2023-03-21T08:52:47;94094.16;;;12.08;84.47
39739;BME280;25422;48.286;8.484;2023-03-21T08:55:14;94090.72;;;12.37;84.32
39739;BME280;25422;48.286;8.484;2023-03-21T08:57:40;94096.28;;;12.64;81.53
39739;BME280;25422;48.286;8.484;2023-03-21T09:00:08;94101.50;;;13.37;78.88
39739;BME280;25422;48.286;8.484;2023-03-21T09:02:45;94092.31;;;13.48;73.07
39739;BME280;25422;48.286;8.484;2023-03-21T09:05:13;94089.25;;;13.23;71.15
39739;BME280;25422;48.286;8.484;2023-03-21T09:07:39;94091.84;;;13.01;73.49
39739;BME280;25422;48.286;8.484;2023-03-21T09:10:06;94083.03;;;13.52;72.11
39739;BME280;25422;48.286;8.484;2023-03-21T09:12:33;94082.72;;;13.62;69.59
39739;BME280;25422;48.286;8.484;2023-03-21T09:14:58;94092.72;;;14.02;65.92
39739;BME280;25422;48.286;8.484;2023-03-21T09:17:27;94091.53;;;14.04;66.48
39739;BME280;25422;48.286;8.484;2023-03-21T09:19:52;94093.47;;;13.95;66.15
39739;BME280;25422;48.286;8.484;2023-03-21T09:22:18;94089.38;;;14.21;64.26
39739;BME280;25422;48.286;8.484;2023-03-21T09:24:48;94092.03;;;14.28;64.02
39739;BME280;25422;48.286;8.484;2023-03-21T09:27:17;94086.88;;;14.06;62.85
39739;BME280;25422;48.286;8.484;2023-03-21T09:29:50;94090.44;;;14.69;60.97
39739;BME280;25422;48.286;8.484;2023-03-21T09:32:17;94089.06;;;14.38;61.43
39739;BME280;25422;48.286;8.484;2023-03-21T09:34:43;94092.00;;;14.21;61.57
39739;BME280;25422;48.286;8.484;2023-03-21T09:37:09;94087.50;;;14.08;61.71
39739;BME280;25422;48.286;8.484;2023-03-21T09:39:36;94082.72;;;13.90;61.59
39739;BME280;25422;48.286;8.484;2023-03-21T09:47:14;94085.59;;;13.67;61.76
39739;BME280;25422;48.286;8.484;2023-03-21T09:49:58;94088.88;;;13.47;63.97
39739;BME280;25422;48.286;8.484;2023-03-21T09:52:36;94089.94;;;13.81;63.26
39739;BME280;25422;48.286;8.484;2023-03-21T09:55:15;94081.53;;;14.28;60.37
39739;BME280;25422;48.286;8.484;2023-03-21T09:57:46;94082.00;;;14.38;60.66
39739;BME280;25422;48.286;8.484;2023-03-21T10:00:19;94081.97;;;13.68;60.52
39739;BME280;25422;48.286;8.484;2023-03-21T10:02:50;94077.41;;;13.83;60.73
39739;BME280;25422;48.286;8.484;2023-03-21T10:05:26;94079.59;;;14.08;59.55
39739;BME280;25422;48.286;8.484;2023-03-21T10:07:59;94071.88;;;14.00;60.52
39739;BME280;25422;48.286;8.484;2023-03-21T10:10:31;94073.59;;;14.21;60.60
39739;BME280;25422;48.286;8.484;2023-03-21T10:12:58;94073.53;;;13.79;58.76
39739;BME280;25422;48.286;8.484;2023-03-21T10:15:25;94069.09;;;14.08;58.42
39739;BME280;25422;48.286;8.484;2023-03-21T10:17:55;94075.13;;;14.09;58.61
39739;BME280;25422;48.286;8.484;2023-03-21T10:20:33;94071.13;;;14.55;56.22
39739;BME280;25422;48.286;8.484;2023-03-21T10:23:00;94067.03;;;13.75;58.39
39739;BME280;25422;48.286;8.484;2023-03-21T10:27:57;94065.53;;;14.71;55.52
39739;BME280;25422;48.286;8.484;2023-03-21T10:33:02;94069.53;;;15.22;54.23
39739;BME280;25422;48.286;8.484;2023-03-21T10:35:30;94075.88;;;14.79;55.72
39739;BME280;25422;48.286;8.484;2023-03-21T10:38:01;94073.84;;;14.33;51.04
39739;BME280;25422;48.286;8.484;2023-03-21T10:40:27;94068.97;;;14.23;53.56
39739;BME280;25422;48.286;8.484;2023-03-21T10:42:58;94068.06;;;14.09;58.01
39739;BME280;25422;48.286;8.484;2023-03-21T10:45:39;94067.53;;;13.14;60.38
39739;BME280;25422;48.286;8.484;2023-03-21T10:48:06;94059.16;;;13.47;62.25
39739;BME280;25422;48.286;8.484;2023-03-21T10:50:32;94058.44;;;13.60;62.32
39739;BME280;25422;48.286;8.484;2023-03-21T10:52:58;94067.53;;;13.86;60.55
39739;BME280;25422;48.286;8.484;2023-03-21T10:55:29;94061.72;;;13.97;57.70
39739;BME280;25422;48.286;8.484;2023-03-21T10:58:06;94064.78;;;14.00;56.76
39739;BME280;25422;48.286;8.484;2023-03-21T11:00:40;94066.13;;;14.25;58.49
39739;BME280;25422;48.286;8.484;2023-03-21T11:03:23;94062.84;;;15.26;55.67
39739;BME280;25422;48.286;8.484;2023-03-21T11:05:55;94068.38;;;14.70;56.21
39739;BME280;25422;48.286;8.484;2023-03-21T11:08:21;94067.81;;;14.39;54.43
39739;BME280;25422;48.286;8.484;2023-03-21T11:10:54;94062.44;;;14.12;53.96
39739;BME280;25422;48.286;8.484;2023-03-21T11:13:26;94060.06;;;14.31;54.93
39739;BME280;25422;48.286;8.484;2023-03-21T11:15:57;94053.97;;;14.65;54.57
39739;BME280;25422;48.286;8.484;2023-03-21T11:18:25;94056.84;;;14.77;52.96
39739;BME280;25422;48.286;8.484;2023-03-21T11:20:56;94060.63;;;14.61;53.24
39739;BME280;25422;48.286;8.484;2023-03-21T11:23:28;94049.59;;;14.99;53.22
39739;BME280;25422;48.286;8.484;2023-03-21T11:25:54;94051.69;;;15.64;50.28
39739;BME280;25422;48.286;8.484;2023-03-21T11:28:24;94055.91;;;15.79;49.64
39739;BME280;25422;48.286;8.484;2023-03-21T11:30:55;94042.31;;;15.08;50.41
39739;BME280;25422;48.286;8.484;2023-03-21T11:33:25;94054.53;;;14.61;50.52
39739;BME280;25422;48.286;8.484;2023-03-21T11:38:27;94038.31;;;13.74;55.75
39739;BME280;25422;48.286;8.484;2023-03-21T11:40:58;94038.22;;;13.60;56.47
39739;BME280;25422;48.286;8.484;2023-03-21T11:45:56;94024.06;;;14.80;52.59
39739;BME280;25422;48.286;8.484;2023-03-21T11:48:22;94026.28;;;14.83;52.50
39739;BME280;25422;48.286;8.484;2023-03-21T11:50:50;94023.09;;;15.48;51.45
39739;BME280;25422;48.286;8.484;2023-03-21T12:04:20;94000.75;;;15.91;46.97
39739;BME280;25422;48.286;8.484;2023-03-21T12:06:53;94000.00;;;16.29;46.75
39739;BME280;25422;48.286;8.484;2023-03-21T12:09:41;93990.91;;;16.18;46.62
39739;BME280;25422;48.286;8.484;2023-03-21T12:12:30;93984.19;;;16.29;46.89
39739;BME280;25422;48.286;8.484;2023-03-21T12:15:00;93984.47;;;16.07;46.12
39739;BME280;25422;48.286;8.484;2023-03-21T12:21:05;93972.91;;;16.54;45.52
39739;BME280;25422;48.286;8.484;2023-03-21T12:26:25;93980.78;;;16.99;45.77
39739;BME280;25422;48.286;8.484;2023-03-21T12:29:13;93969.09;;;16.81;45.46
39739;BME280;25422;48.286;8.484;2023-03-21T12:37:47;93961.94;;;16.05;46.19
39739;BME280;25422;48.286;8.484;2023-03-21T12:46:21;93961.19;;;15.84;46.97
39739;BME280;25422;48.286;8.484;2023-03-21T12:48:51;93958.41;;;14.98;47.91
39739;BME280;25422;48.286;8.484;2023-03-21T12:51:21;93968.16;;;15.25;48.38
39739;BME280;25422;48.286;8.484;2023-03-21T12:56:30;93965.91;;;15.42;49.46
39739;BME280;25422;48.286;8.484;2023-03-21T12:59:02;93962.25;;;15.63;49.68
39739;BME280;25422;48.286;8.484;2023-03-21T13:01:31;93969.59;;;15.21;50.40
39739;BME280;25422;48.286;8.484;2023-03-21T13:04:17;93959.44;;;14.84;51.24
39739;BME280;25422;48.286;8.484;2023-03-21T13:06:50;93966.75;;;15.36;50.40
39739;BME280;25422;48.286;8.484;2023-03-21T13:09:38;93954.69;;;15.73;48.42
39739;BME280;25422;48.286;8.484;2023-03-21T13:15:21;93956.78;;;14.15;54.12
39739;BME280;25422;48.286;8.484;2023-03-21T13:18:15;93948.31;;;14.27;53.91
39739;BME280;25422;48.286;8.484;2023-03-21T13:20:49;93948.81;;;14.50;53.37
39739;BME280;25422;48.286;8.484;2023-03-21T13:23:17;93942.28;;;14.33;53.34
39739;BME280;25422;48.286;8.484;2023-03-21T13:25:50;93937.97;;;14.19;52.62
39739;BME280;25422;48.286;8.484;2023-03-21T13:30:45;93948.63;;;13.97;53.29
39739;BME280;25422;48.286;8.484;2023-03-21T13:33:15;93942.38;;;13.63;53.54
39739;BME280;25422;48.286;8.484;2023-03-21T13:35:44;93947.50;;;13.36;54.54
39739;BME280;25422;48.286;8.484;2023-03-21T13:38:15;93934.38;;;13.43;56.27
39739;BME280;25422;48.286;8.484;2023-03-21T13:43:51;93936.81;;;13.73;54.31
39739;BME280;25422;48.286;8.484;2023-03-21T13:56:28;93934.09;;;13.59;53.98
39739;BME280;25422;48.286;8.484;2023-03-21T13:59:00;93931.53;;;13.79;55.39
39739;BME280;25422;48.286;8.484;2023-03-21T14:01:35;93935.00;;;13.80;56.31
39739;BME280;25422;48.286;8.484;2023-03-21T14:04:20;93929.69;;;13.66;54.65
39739;BME280;25422;48.286;8.484;2023-03-21T14:06:54;93924.81;;;13.63;53.04
39739;BME280;25422;48.286;8.484;2023-03-21T14:09:35;93932.06;;;13.33;53.19
39739;BME280;25422;48.286;8.484;2023-03-21T14:12:04;93929.16;;;13.14;52.59
39739;BME280;25422;48.286;8.484;2023-03-21T14:14:37;93924.88;;;13.13;52.87
39739;BME280;25422;48.286;8.484;2023-03-21T14:17:21;93922.25;;;13.13;52.20
39739;BME280;25422;48.286;8.484;2023-03-21T14:19:51;93921.03;;;13.09;53.39
39739;BME280;25422;48.286;8.484;2023-03-21T14:22:17;93917.19;;;13.12;53.99
39739;BME280;25422;48.286;8.484;2023-03-21T14:24:56;93901.19;;;13.07;52.55
39739;BME280;25422;48.286;8.484;2023-03-21T14:27:23;93918.53;;;13.01;51.79
39739;BME280;25422;48.286;8.484;2023-03-21T14:29:50;93909.06;;;12.78;53.42
39739;BME280;25422;48.286;8.484;2023-03-21T14:32:28;93909.66;;;12.52;54.11
39739;BME280;25422;48.286;8.484;2023-03-21T14:34:54;93910.06;;;12.56;55.51
39739;BME280;25422;48.286;8.484;2023-03-21T14:37:35;93912.56;;;12.42;53.95
39739;BME280;25422;48.286;8.484;2023-03-21T14:40:05;93909.28;;;12.55;55.55